sensor_id;sensor_type;location;lat;lon;timestamp;temperature;humidity
73780;SHT30;62093;37.614;15.072;2022-12-18T00:01:39;17.51;69.39
73780;SHT30;62093;37.614;15.072;2022-12-18T00:04:10;17.51;69.41
73780;SHT30;62093;37.614;15.072;2022-12-18T00:06:46;17.51;69.20
73780;SHT30;62093;37.614;15.072;2022-12-18T00:09:16;17.52;69.66
73780;SHT30;62093;37.614;15.072;2022-12-18T00:11:51;17.51;69.25
73780;SHT30;62093;37.614;15.072;2022-12-18T00:14:23;17.49;69.11
73780;SHT30;62093;37.614;15.072;2022-12-18T00:16:49;17.52;69.30
73780;SHT30;62093;37.614;15.072;2022-12-18T00:19:15;17.51;69.71
73780;SHT30;62093;37.614;15.072;2022-12-18T00:21:43;17.46;69.43
73780;SHT30;62093;37.614;15.072;2022-12-18T00:24:10;17.51;69.25
73780;SHT30;62093;37.614;15.072;2022-12-18T00:26:38;17.48;69.55
73780;SHT30;62093;37.614;15.072;2022-12-18T00:29:11;17.49;69.45
73780;SHT30;62093;37.614;15.072;2022-12-18T00:31:40;17.46;69.35
73780;SHT30;62093;37.614;15.072;2022-12-18T00:34:06;17.46;69.60
73780;SHT30;62093;37.614;15.072;2022-12-18T00:36:34;17.46;68.92
73780;SHT30;62093;37.614;15.072;2022-12-18T00:39:04;17.49;69.27
73780;SHT30;62093;37.614;15.072;2022-12-18T00:41:31;17.45;69.34
73780;SHT30;62093;37.614;15.072;2022-12-18T00:44:30;17.45;69.09
73780;SHT30;62093;37.614;15.072;2022-12-18T00:46:57;17.49;69.37
73780;SHT30;62093;37.614;15.072;2022-12-18T00:49:23;17.48;69.30
73780;SHT30;62093;37.614;15.072;2022-12-18T00:51:49;17.46;69.22
73780;SHT30;62093;37.614;15.072;2022-12-18T00:54:15;17.48;69.44
73780;SHT30;62093;37.614;15.072;2022-12-18T00:56:42;17.48;68.91
73780;SHT30;62093;37.614;15.072;2022-12-18T00:59:08;17.48;69.35
73780;SHT30;62093;37.614;15.072;2022-12-18T01:01:34;17.54;69.42
73780;SHT30;62093;37.614;15.072;2022-12-18T01:04:02;17.49;69.16
73780;SHT30;62093;37.614;15.072;2022-12-18T01:06:28;17.46;69.33
73780;SHT30;62093;37.614;15.072;2022-12-18T01:08:55;17.45;68.75
73780;SHT30;62093;37.614;15.072;2022-12-18T01:11:22;17.51;69.35
73780;SHT30;62093;37.614;15.072;2022-12-18T01:13:48;17.48;69.57
73780;SHT30;62093;37.614;15.072;2022-12-18T01:16:15;17.48;69.01
73780;SHT30;62093;37.614;15.072;2022-12-18T01:18:42;17.52;69.14
73780;SHT30;62093;37.614;15.072;2022-12-18T01:21:19;17.48;69.38
73780;SHT30;62093;37.614;15.072;2022-12-18T01:23:46;17.45;69.25
73780;SHT30;62093;37.614;15.072;2022-12-18T01:26:15;17.46;69.45
73780;SHT30;62093;37.614;15.072;2022-12-18T01:28:42;17.49;69.44
73780;SHT30;62093;37.614;15.072;2022-12-18T01:33:39;17.45;68.97
73780;SHT30;62093;37.614;15.072;2022-12-18T01:36:05;17.45;69.25
73780;SHT30;62093;37.614;15.072;2022-12-18T01:38:31;17.49;69.27
73780;SHT30;62093;37.614;15.072;2022-12-18T01:40:59;17.42;69.32
73780;SHT30;62093;37.614;15.072;2022-12-18T01:43:53;17.44;69.59
73780;SHT30;62093;37.614;15.072;2022-12-18T01:46:21;17.46;69.60
73780;SHT30;62093;37.614;15.072;2022-12-18T01:48:51;17.45;69.52
73780;SHT30;62093;37.614;15.072;2022-12-18T01:51:20;17.42;68.74
73780;SHT30;62093;37.614;15.072;2022-12-18T01:53:48;17.44;69.14
73780;SHT30;62093;37.614;15.072;2022-12-18T01:56:17;17.38;68.92
73780;SHT30;62093;37.614;15.072;2022-12-18T01:58:54;17.39;69.22
73780;SHT30;62093;37.614;15.072;2022-12-18T02:01:24;17.35;69.47
73780;SHT30;62093;37.614;15.072;2022-12-18T02:03:51;17.35;69.18
73780;SHT30;62093;37.614;15.072;2022-12-18T02:06:36;17.38;69.16
73780;SHT30;62093;37.614;15.072;2022-12-18T02:09:13;17.36;69.37
73780;SHT30;62093;37.614;15.072;2022-12-18T02:11:47;17.35;69.13
73780;SHT30;62093;37.614;15.072;2022-12-18T02:14:22;17.32;69.14
73780;SHT30;62093;37.614;15.072;2022-12-18T02:17:09;17.35;69.36
73780;SHT30;62093;37.614;15.072;2022-12-18T02:28:23;17.31;69.33
73780;SHT30;62093;37.614;15.072;2022-12-18T02:30:56;17.36;69.49
73780;SHT30;62093;37.614;15.072;2022-12-18T02:33:24;17.36;69.44
73780;SHT30;62093;37.614;15.072;2022-12-18T02:35:53;17.34;69.38
73780;SHT30;62093;37.614;15.072;2022-12-18T02:38:20;17.30;69.54
73780;SHT30;62093;37.614;15.072;2022-12-18T02:40:51;17.34;69.77
73780;SHT30;62093;37.614;15.072;2022-12-18T02:43:19;17.32;69.64
73780;SHT30;62093;37.614;15.072;2022-12-18T02:45:48;17.27;69.07
73780;SHT30;62093;37.614;15.072;2022-12-18T02:48:17;17.30;69.45
73780;SHT30;62093;37.614;15.072;2022-12-18T02:51:29;17.32;69.64
73780;SHT30;62093;37.614;15.072;2022-12-18T03:00:04;17.28;69.54
73780;SHT30;62093;37.614;15.072;2022-12-18T03:02:43;17.28;69.47
73780;SHT30;62093;37.614;15.072;2022-12-18T03:05:24;17.27;69.53
73780;SHT30;62093;37.614;15.072;2022-12-18T03:08:00;17.23;69.29
73780;SHT30;62093;37.614;15.072;2022-12-18T03:10:35;17.27;69.36
73780;SHT30;62093;37.614;15.072;2022-12-18T03:13:10;17.24;69.20
73780;SHT30;62093;37.614;15.072;2022-12-18T03:15:42;17.21;69.57
73780;SHT30;62093;37.614;15.072;2022-12-18T03:18:43;17.21;69.07
73780;SHT30;62093;37.614;15.072;2022-12-18T03:21:13;17.25;69.41
73780;SHT30;62093;37.614;15.072;2022-12-18T03:23:44;17.21;69.35
73780;SHT30;62093;37.614;15.072;2022-12-18T03:26:16;17.25;69.35
73780;SHT30;62093;37.614;15.072;2022-12-18T03:28:51;17.20;69.15
73780;SHT30;62093;37.614;15.072;2022-12-18T03:31:21;17.20;69.36
73780;SHT30;62093;37.614;15.072;2022-12-18T03:36:25;17.17;69.01
73780;SHT30;62093;37.614;15.072;2022-12-18T03:38:57;17.17;69.59
73780;SHT30;62093;37.614;15.072;2022-12-18T03:41:47;17.17;69.55
73780;SHT30;62093;37.614;15.072;2022-12-18T03:47:36;17.18;69.59
73780;SHT30;62093;37.614;15.072;2022-12-18T03:50:22;17.18;69.49
73780;SHT30;62093;37.614;15.072;2022-12-18T03:53:05;17.17;69.34
73780;SHT30;62093;37.614;15.072;2022-12-18T03:55:35;17.14;69.20
73780;SHT30;62093;37.614;15.072;2022-12-18T03:58:06;17.15;69.20
73780;SHT30;62093;37.614;15.072;2022-12-18T04:00:46;17.20;69.77
73780;SHT30;62093;37.614;15.072;2022-12-18T04:03:13;17.13;69.28
73780;SHT30;62093;37.614;15.072;2022-12-18T04:05:47;17.14;69.32
73780;SHT30;62093;37.614;15.072;2022-12-18T04:08:18;17.18;69.42
73780;SHT30;62093;37.614;15.072;2022-12-18T04:10:53;17.13;68.99
73780;SHT30;62093;37.614;15.072;2022-12-18T04:13:25;17.17;69.29
73780;SHT30;62093;37.614;15.072;2022-12-18T04:15:53;17.17;69.40
73780;SHT30;62093;37.614;15.072;2022-12-18T04:18:21;17.20;69.52
73780;SHT30;62093;37.614;15.072;2022-12-18T04:20:48;17.17;68.99
73780;SHT30;62093;37.614;15.072;2022-12-18T04:23:15;17.21;68.91
73780;SHT30;62093;37.614;15.072;2022-12-18T04:25:41;17.20;69.03
73780;SHT30;62093;37.614;15.072;2022-12-18T04:28:10;17.17;69.43
73780;SHT30;62093;37.614;15.072;2022-12-18T04:30:38;17.15;69.06
73780;SHT30;62093;37.614;15.072;2022-12-18T04:33:12;17.20;69.24
73780;SHT30;62093;37.614;15.072;2022-12-18T04:35:39;17.20;68.85
73780;SHT30;62093;37.614;15.072;2022-12-18T04:38:07;17.20;68.74
73780;SHT30;62093;37.614;15.072;2022-12-18T04:40:37;17.18;69.47
73780;SHT30;62093;37.614;15.072;2022-12-18T04:43:10;17.14;69.05
73780;SHT30;62093;37.614;15.072;2022-12-18T04:45:36;17.13;68.74
73780;SHT30;62093;37.614;15.072;2022-12-18T04:48:02;17.13;68.70
73780;SHT30;62093;37.614;15.072;2022-12-18T04:50:28;17.14;69.21
73780;SHT30;62093;37.614;15.072;2022-12-18T04:52:54;17.17;68.98
73780;SHT30;62093;37.614;15.072;2022-12-18T04:55:21;17.23;68.96
73780;SHT30;62093;37.614;15.072;2022-12-18T04:57:50;17.14;68.47
73780;SHT30;62093;37.614;15.072;2022-12-18T05:00:16;17.20;69.27
73780;SHT30;62093;37.614;15.072;2022-12-18T05:02:42;17.23;69.52
73780;SHT30;62093;37.614;15.072;2022-12-18T05:05:08;17.18;68.46
73780;SHT30;62093;37.614;15.072;2022-12-18T05:07:34;17.11;68.94
73780;SHT30;62093;37.614;15.072;2022-12-18T05:10:00;17.13;69.28
73780;SHT30;62093;37.614;15.072;2022-12-18T05:12:26;17.15;69.43
73780;SHT30;62093;37.614;15.072;2022-12-18T05:14:52;17.18;68.73
73780;SHT30;62093;37.614;15.072;2022-12-18T05:17:18;17.11;68.84
73780;SHT30;62093;37.614;15.072;2022-12-18T05:19:44;17.10;68.54
73780;SHT30;62093;37.614;15.072;2022-12-18T05:22:10;17.13;69.03
73780;SHT30;62093;37.614;15.072;2022-12-18T05:24:36;17.06;68.88
73780;SHT30;62093;37.614;15.072;2022-12-18T05:27:02;17.08;69.16
73780;SHT30;62093;37.614;15.072;2022-12-18T05:29:28;17.06;68.85
73780;SHT30;62093;37.614;15.072;2022-12-18T05:31:54;17.10;69.36
73780;SHT30;62093;37.614;15.072;2022-12-18T05:34:21;17.03;68.76
73780;SHT30;62093;37.614;15.072;2022-12-18T05:36:47;17.06;68.91
73780;SHT30;62093;37.614;15.072;2022-12-18T05:39:13;17.06;68.51
73780;SHT30;62093;37.614;15.072;2022-12-18T05:41:39;17.06;69.41
73780;SHT30;62093;37.614;15.072;2022-12-18T05:44:05;17.04;68.57
73780;SHT30;62093;37.614;15.072;2022-12-18T05:46:31;17.01;69.14
73780;SHT30;62093;37.614;15.072;2022-12-18T05:49:00;17.04;68.69
73780;SHT30;62093;37.614;15.072;2022-12-18T05:51:27;17.03;68.61
73780;SHT30;62093;37.614;15.072;2022-12-18T05:53:53;17.00;68.54
73780;SHT30;62093;37.614;15.072;2022-12-18T05:56:22;17.06;69.35
73780;SHT30;62093;37.614;15.072;2022-12-18T05:58:52;17.08;68.09
73780;SHT30;62093;37.614;15.072;2022-12-18T06:01:21;17.03;68.64
73780;SHT30;62093;37.614;15.072;2022-12-18T06:03:47;17.03;67.77
73780;SHT30;62093;37.614;15.072;2022-12-18T06:06:22;17.04;69.06
73780;SHT30;62093;37.614;15.072;2022-12-18T06:08:49;17.03;68.45
73780;SHT30;62093;37.614;15.072;2022-12-18T06:11:18;17.08;69.15
73780;SHT30;62093;37.614;15.072;2022-12-18T06:13:45;17.06;68.78
73780;SHT30;62093;37.614;15.072;2022-12-18T06:16:11;17.00;68.15
73780;SHT30;62093;37.614;15.072;2022-12-18T06:18:37;17.00;68.57
73780;SHT30;62093;37.614;15.072;2022-12-18T06:21:03;17.01;68.78
73780;SHT30;62093;37.614;15.072;2022-12-18T06:23:29;17.06;68.39
73780;SHT30;62093;37.614;15.072;2022-12-18T06:25:56;17.04;68.50
73780;SHT30;62093;37.614;15.072;2022-12-18T06:28:22;17.04;68.69
73780;SHT30;62093;37.614;15.072;2022-12-18T06:30:48;17.00;68.51
73780;SHT30;62093;37.614;15.072;2022-12-18T06:33:15;16.99;68.14
73780;SHT30;62093;37.614;15.072;2022-12-18T06:35:41;17.00;67.92
73780;SHT30;62093;37.614;15.072;2022-12-18T06:38:07;17.00;69.02
73780;SHT30;62093;37.614;15.072;2022-12-18T06:40:33;17.03;68.63
73780;SHT30;62093;37.614;15.072;2022-12-18T06:42:59;17.06;68.70
73780;SHT30;62093;37.614;15.072;2022-12-18T06:45:25;17.00;68.57
73780;SHT30;62093;37.614;15.072;2022-12-18T06:47:51;17.03;68.26
73780;SHT30;62093;37.614;15.072;2022-12-18T06:50:17;16.97;68.95
73780;SHT30;62093;37.614;15.072;2022-12-18T06:52:43;17.00;68.75
73780;SHT30;62093;37.614;15.072;2022-12-18T06:55:10;17.04;68.54
73780;SHT30;62093;37.614;15.072;2022-12-18T06:57:37;17.01;68.07
73780;SHT30;62093;37.614;15.072;2022-12-18T07:00:04;17.03;68.79
73780;SHT30;62093;37.614;15.072;2022-12-18T07:02:31;17.03;68.92
73780;SHT30;62093;37.614;15.072;2022-12-18T07:04:57;17.01;67.89
73780;SHT30;62093;37.614;15.072;2022-12-18T07:07:24;17.06;69.00
73780;SHT30;62093;37.614;15.072;2022-12-18T07:09:50;17.10;68.76
73780;SHT30;62093;37.614;15.072;2022-12-18T07:12:17;17.07;68.15
73780;SHT30;62093;37.614;15.072;2022-12-18T07:14:43;17.06;67.87
73780;SHT30;62093;37.614;15.072;2022-12-18T07:17:09;17.10;67.10
73780;SHT30;62093;37.614;15.072;2022-12-18T07:19:35;17.08;68.25
73780;SHT30;62093;37.614;15.072;2022-12-18T07:22:01;17.04;67.33
73780;SHT30;62093;37.614;15.072;2022-12-18T07:24:27;17.06;67.25
73780;SHT30;62093;37.614;15.072;2022-12-18T07:26:54;17.10;68.39
73780;SHT30;62093;37.614;15.072;2022-12-18T07:29:20;17.14;68.24
73780;SHT30;62093;37.614;15.072;2022-12-18T07:31:46;17.15;68.15
73780;SHT30;62093;37.614;15.072;2022-12-18T07:34:13;17.14;67.97
73780;SHT30;62093;37.614;15.072;2022-12-18T07:36:40;17.15;66.82
73780;SHT30;62093;37.614;15.072;2022-12-18T07:39:07;17.14;68.09
73780;SHT30;62093;37.614;15.072;2022-12-18T07:41:33;17.18;68.17
73780;SHT30;62093;37.614;15.072;2022-12-18T07:44:10;17.20;67.15
73780;SHT30;62093;37.614;15.072;2022-12-18T07:46:36;17.25;67.77
73780;SHT30;62093;37.614;15.072;2022-12-18T07:49:02;17.30;68.49
73780;SHT30;62093;37.614;15.072;2022-12-18T07:51:28;17.25;68.04
73780;SHT30;62093;37.614;15.072;2022-12-18T07:53:54;17.25;68.30
73780;SHT30;62093;37.614;15.072;2022-12-18T07:56:20;17.27;67.59
73780;SHT30;62093;37.614;15.072;2022-12-18T07:58:47;17.34;67.69
73780;SHT30;62093;37.614;15.072;2022-12-18T08:01:13;17.31;67.17
73780;SHT30;62093;37.614;15.072;2022-12-18T08:03:40;17.32;67.49
73780;SHT30;62093;37.614;15.072;2022-12-18T08:06:08;17.41;66.96
73780;SHT30;62093;37.614;15.072;2022-12-18T08:08:35;17.41;67.41
73780;SHT30;62093;37.614;15.072;2022-12-18T08:11:01;17.48;67.15
73780;SHT30;62093;37.614;15.072;2022-12-18T08:13:27;17.45;67.39
73780;SHT30;62093;37.614;15.072;2022-12-18T08:16:03;17.46;66.09
73780;SHT30;62093;37.614;15.072;2022-12-18T08:18:32;17.49;67.17
73780;SHT30;62093;37.614;15.072;2022-12-18T08:21:14;17.46;66.44
73780;SHT30;62093;37.614;15.072;2022-12-18T08:23:41;17.51;66.38
73780;SHT30;62093;37.614;15.072;2022-12-18T08:26:07;17.58;65.92
73780;SHT30;62093;37.614;15.072;2022-12-18T08:28:34;17.52;65.92
73780;SHT30;62093;37.614;15.072;2022-12-18T08:31:00;17.58;66.73
73780;SHT30;62093;37.614;15.072;2022-12-18T08:33:26;17.63;67.38
73780;SHT30;62093;37.614;15.072;2022-12-18T08:35:52;17.56;66.04
73780;SHT30;62093;37.614;15.072;2022-12-18T08:38:18;17.56;67.07
73780;SHT30;62093;37.614;15.072;2022-12-18T08:40:44;17.49;67.16
73780;SHT30;62093;37.614;15.072;2022-12-18T08:43:11;17.48;66.70
73780;SHT30;62093;37.614;15.072;2022-12-18T08:45:55;17.41;66.66
73780;SHT30;62093;37.614;15.072;2022-12-18T08:48:21;17.44;67.37
73780;SHT30;62093;37.614;15.072;2022-12-18T08:50:58;17.44;67.66
73780;SHT30;62093;37.614;15.072;2022-12-18T08:53:24;17.44;67.60
73780;SHT30;62093;37.614;15.072;2022-12-18T08:55:50;17.41;67.08
73780;SHT30;62093;37.614;15.072;2022-12-18T08:58:16;17.44;67.38
73780;SHT30;62093;37.614;15.072;2022-12-18T09:00:42;17.49;67.93
73780;SHT30;62093;37.614;15.072;2022-12-18T09:03:16;17.49;67.43
73780;SHT30;62093;37.614;15.072;2022-12-18T09:05:42;17.46;67.26
73780;SHT30;62093;37.614;15.072;2022-12-18T09:08:09;17.49;66.79
73780;SHT30;62093;37.614;15.072;2022-12-18T09:10:44;17.46;67.01
73780;SHT30;62093;37.614;15.072;2022-12-18T09:13:11;17.46;66.61
73780;SHT30;62093;37.614;15.072;2022-12-18T09:15:42;17.51;67.50
73780;SHT30;62093;37.614;15.072;2022-12-18T09:18:09;17.49;67.13
73780;SHT30;62093;37.614;15.072;2022-12-18T09:20:36;17.51;66.28
73780;SHT30;62093;37.614;15.072;2022-12-18T09:23:02;17.51;66.93
73780;SHT30;62093;37.614;15.072;2022-12-18T09:25:32;17.51;66.55
73780;SHT30;62093;37.614;15.072;2022-12-18T09:27:59;17.55;67.31
73780;SHT30;62093;37.614;15.072;2022-12-18T09:30:26;17.55;66.72
73780;SHT30;62093;37.614;15.072;2022-12-18T09:32:56;17.56;67.15
73780;SHT30;62093;37.614;15.072;2022-12-18T09:35:22;17.58;67.47
73780;SHT30;62093;37.614;15.072;2022-12-18T09:37:48;17.56;67.24
73780;SHT30;62093;37.614;15.072;2022-12-18T09:40:20;17.51;66.81
73780;SHT30;62093;37.614;15.072;2022-12-18T09:42:52;17.54;67.27
73780;SHT30;62093;37.614;15.072;2022-12-18T09:45:19;17.59;67.12
73780;SHT30;62093;37.614;15.072;2022-12-18T09:47:46;17.58;66.52
73780;SHT30;62093;37.614;15.072;2022-12-18T09:52:53;17.59;66.85
73780;SHT30;62093;37.614;15.072;2022-12-18T09:57:57;17.59;66.80
73780;SHT30;62093;37.614;15.072;2022-12-18T10:00:26;17.63;66.22
73780;SHT30;62093;37.614;15.072;2022-12-18T10:02:59;17.66;67.04
73780;SHT30;62093;37.614;15.072;2022-12-18T10:08:18;17.75;66.47
73780;SHT30;62093;37.614;15.072;2022-12-18T10:10:52;17.66;66.80
73780;SHT30;62093;37.614;15.072;2022-12-18T10:13:28;17.62;66.55
73780;SHT30;62093;37.614;15.072;2022-12-18T10:16:19;17.65;66.85
73780;SHT30;62093;37.614;15.072;2022-12-18T10:26:56;17.69;66.06
73780;SHT30;62093;37.614;15.072;2022-12-18T10:29:25;17.69;66.38
73780;SHT30;62093;37.614;15.072;2022-12-18T10:31:51;17.69;65.79
73780;SHT30;62093;37.614;15.072;2022-12-18T10:34:17;17.68;66.40
73780;SHT30;62093;37.614;15.072;2022-12-18T10:36:44;17.71;66.61
73780;SHT30;62093;37.614;15.072;2022-12-18T10:39:22;17.69;65.77
73780;SHT30;62093;37.614;15.072;2022-12-18T10:41:48;17.72;65.93
73780;SHT30;62093;37.614;15.072;2022-12-18T10:46:45;17.73;66.11
73780;SHT30;62093;37.614;15.072;2022-12-18T10:49:20;17.73;66.60
73780;SHT30;62093;37.614;15.072;2022-12-18T10:51:47;17.79;66.82
73780;SHT30;62093;37.614;15.072;2022-12-18T10:54:18;17.82;66.87
73780;SHT30;62093;37.614;15.072;2022-12-18T10:56:46;17.75;66.41
73780;SHT30;62093;37.614;15.072;2022-12-18T10:59:15;17.81;65.96
73780;SHT30;62093;37.614;15.072;2022-12-18T11:01:56;17.81;66.34
73780;SHT30;62093;37.614;15.072;2022-12-18T11:04:27;17.78;66.72
73780;SHT30;62093;37.614;15.072;2022-12-18T11:07:05;17.81;66.28
73780;SHT30;62093;37.614;15.072;2022-12-18T11:09:33;17.79;65.75
73780;SHT30;62093;37.614;15.072;2022-12-18T11:12:05;17.82;66.01
73780;SHT30;62093;37.614;15.072;2022-12-18T11:17:30;17.82;66.00
73780;SHT30;62093;37.614;15.072;2022-12-18T11:20:05;17.86;66.41
73780;SHT30;62093;37.614;15.072;2022-12-18T11:22:36;17.83;66.30
73780;SHT30;62093;37.614;15.072;2022-12-18T11:27:32;17.85;66.23
73780;SHT30;62093;37.614;15.072;2022-12-18T11:30:29;17.86;66.20
73780;SHT30;62093;37.614;15.072;2022-12-18T11:33:25;17.86;66.51
73780;SHT30;62093;37.614;15.072;2022-12-18T11:35:52;17.85;66.41
73780;SHT30;62093;37.614;15.072;2022-12-18T11:38:32;17.87;66.09
73780;SHT30;62093;37.614;15.072;2022-12-18T11:41:09;17.87;65.90
73780;SHT30;62093;37.614;15.072;2022-12-18T11:43:59;17.89;66.22
73780;SHT30;62093;37.614;15.072;2022-12-18T11:46:33;17.90;66.03
73780;SHT30;62093;37.614;15.072;2022-12-18T11:49:20;17.90;65.90
73780;SHT30;62093;37.614;15.072;2022-12-18T11:51:55;17.87;66.59
73780;SHT30;62093;37.614;15.072;2022-12-18T11:54:24;17.90;65.49
73780;SHT30;62093;37.614;15.072;2022-12-18T11:57:06;17.87;66.35
73780;SHT30;62093;37.614;15.072;2022-12-18T12:05:06;17.90;66.42
73780;SHT30;62093;37.614;15.072;2022-12-18T12:16:06;17.86;66.18
73780;SHT30;62093;37.614;15.072;2022-12-18T12:32:01;17.89;65.98
73780;SHT30;62093;37.614;15.072;2022-12-18T12:40:18;17.90;66.02
73780;SHT30;62093;37.614;15.072;2022-12-18T12:42:48;17.90;66.32
73780;SHT30;62093;37.614;15.072;2022-12-18T12:45:40;17.93;66.31
73780;SHT30;62093;37.614;15.072;2022-12-18T12:48:51;17.90;66.24
73780;SHT30;62093;37.614;15.072;2022-12-18T12:52:10;17.93;66.68
73780;SHT30;62093;37.614;15.072;2022-12-18T12:54:34;17.89;66.74
73780;SHT30;62093;37.614;15.072;2022-12-18T12:57:23;17.92;66.81
73780;SHT30;62093;37.614;15.072;2022-12-18T13:03:13;17.87;66.75
73780;SHT30;62093;37.614;15.072;2022-12-18T13:05:58;17.90;66.56
73780;SHT30;62093;37.614;15.072;2022-12-18T13:08:28;17.90;66.79
73780;SHT30;62093;37.614;15.072;2022-12-18T13:10:57;17.86;66.90
73780;SHT30;62093;37.614;15.072;2022-12-18T13:13:51;17.89;66.91
73780;SHT30;62093;37.614;15.072;2022-12-18T13:16:20;17.92;67.01
73780;SHT30;62093;37.614;15.072;2022-12-18T13:18:54;17.89;66.82
73780;SHT30;62093;37.614;15.072;2022-12-18T13:23:53;17.89;67.00
73780;SHT30;62093;37.614;15.072;2022-12-18T13:33:46;17.89;66.84
73780;SHT30;62093;37.614;15.072;2022-12-18T13:38:41;17.92;67.10
73780;SHT30;62093;37.614;15.072;2022-12-18T13:41:24;17.89;66.92
73780;SHT30;62093;37.614;15.072;2022-12-18T13:46:54;17.86;67.16
73780;SHT30;62093;37.614;15.072;2022-12-18T13:49:29;17.90;66.96
73780;SHT30;62093;37.614;15.072;2022-12-18T13:51:57;17.89;67.06
73780;SHT30;62093;37.614;15.072;2022-12-18T13:56:52;17.92;67.10
73780;SHT30;62093;37.614;15.072;2022-12-18T13:59:26;17.90;66.96
73780;SHT30;62093;37.614;15.072;2022-12-18T14:01:57;17.92;67.13
73780;SHT30;62093;37.614;15.072;2022-12-18T14:04:29;17.90;66.96
73780;SHT30;62093;37.614;15.072;2022-12-18T14:07:04;17.92;66.97
73780;SHT30;62093;37.614;15.072;2022-12-18T14:09:35;17.93;67.11
73780;SHT30;62093;37.614;15.072;2022-12-18T14:12:03;17.95;67.02
73780;SHT30;62093;37.614;15.072;2022-12-18T14:14:50;17.93;66.71
73780;SHT30;62093;37.614;15.072;2022-12-18T14:17:17;17.93;66.96
73780;SHT30;62093;37.614;15.072;2022-12-18T14:19:49;17.96;66.93
73780;SHT30;62093;37.614;15.072;2022-12-18T14:22:20;17.95;66.99
73780;SHT30;62093;37.614;15.072;2022-12-18T14:24:47;17.92;66.95
73780;SHT30;62093;37.614;15.072;2022-12-18T14:27:30;17.92;66.99
73780;SHT30;62093;37.614;15.072;2022-12-18T14:29:56;17.96;66.95
73780;SHT30;62093;37.614;15.072;2022-12-18T14:32:22;17.93;66.97
73780;SHT30;62093;37.614;15.072;2022-12-18T14:34:51;17.89;66.95
73780;SHT30;62093;37.614;15.072;2022-12-18T14:37:21;17.93;67.04
73780;SHT30;62093;37.614;15.072;2022-12-18T14:40:02;17.90;67.22
73780;SHT30;62093;37.614;15.072;2022-12-18T14:42:31;17.92;67.10
73780;SHT30;62093;37.614;15.072;2022-12-18T14:45:32;17.90;67.16
73780;SHT30;62093;37.614;15.072;2022-12-18T14:47:59;17.87;67.25
73780;SHT30;62093;37.614;15.072;2022-12-18T14:50:26;17.86;67.16
73780;SHT30;62093;37.614;15.072;2022-12-18T14:52:52;17.85;67.22
73780;SHT30;62093;37.614;15.072;2022-12-18T14:55:19;17.92;67.23
73780;SHT30;62093;37.614;15.072;2022-12-18T14:57:50;17.90;67.13
73780;SHT30;62093;37.614;15.072;2022-12-18T15:00:19;17.87;67.21
73780;SHT30;62093;37.614;15.072;2022-12-18T15:02:59;17.89;66.92
73780;SHT30;62093;37.614;15.072;2022-12-18T15:05:29;17.92;67.14
73780;SHT30;62093;37.614;15.072;2022-12-18T15:07:58;17.86;67.31
73780;SHT30;62093;37.614;15.072;2022-12-18T15:10:27;17.85;67.24
73780;SHT30;62093;37.614;15.072;2022-12-18T15:20:42;17.83;67.58
73780;SHT30;62093;37.614;15.072;2022-12-18T15:23:30;17.82;67.67
73780;SHT30;62093;37.614;15.072;2022-12-18T15:26:06;17.83;67.48
73780;SHT30;62093;37.614;15.072;2022-12-18T15:34:00;17.81;67.68
73780;SHT30;62093;37.614;15.072;2022-12-18T15:36:26;17.81;67.68
73780;SHT30;62093;37.614;15.072;2022-12-18T15:38:54;17.79;67.78
73780;SHT30;62093;37.614;15.072;2022-12-18T15:41:21;17.79;67.54
73780;SHT30;62093;37.614;15.072;2022-12-18T15:43:49;17.78;67.69
73780;SHT30;62093;37.614;15.072;2022-12-18T15:46:17;17.75;67.80
73780;SHT30;62093;37.614;15.072;2022-12-18T15:48:46;17.76;67.52
73780;SHT30;62093;37.614;15.072;2022-12-18T15:51:21;17.76;67.75
73780;SHT30;62093;37.614;15.072;2022-12-18T15:53:50;17.72;67.81
73780;SHT30;62093;37.614;15.072;2022-12-18T15:56:17;17.72;67.71
73780;SHT30;62093;37.614;15.072;2022-12-18T15:59:02;17.78;67.82
73780;SHT30;62093;37.614;15.072;2022-12-18T16:01:30;17.78;67.78
73780;SHT30;62093;37.614;15.072;2022-12-18T16:03:57;17.73;67.83
73780;SHT30;62093;37.614;15.072;2022-12-18T16:06:23;17.73;67.77
73780;SHT30;62093;37.614;15.072;2022-12-18T16:08:49;17.73;67.70
73780;SHT30;62093;37.614;15.072;2022-12-18T16:11:25;17.72;67.96
73780;SHT30;62093;37.614;15.072;2022-12-18T16:16:42;17.72;67.81
73780;SHT30;62093;37.614;15.072;2022-12-18T16:19:08;17.73;67.95
73780;SHT30;62093;37.614;15.072;2022-12-18T16:21:34;17.71;67.98
73780;SHT30;62093;37.614;15.072;2022-12-18T16:24:00;17.71;67.94
73780;SHT30;62093;37.614;15.072;2022-12-18T16:26:26;17.69;68.15
73780;SHT30;62093;37.614;15.072;2022-12-18T16:28:52;17.71;67.94
73780;SHT30;62093;37.614;15.072;2022-12-18T16:31:19;17.72;68.02
73780;SHT30;62093;37.614;15.072;2022-12-18T16:33:45;17.72;68.12
73780;SHT30;62093;37.614;15.072;2022-12-18T16:36:13;17.68;68.08
73780;SHT30;62093;37.614;15.072;2022-12-18T16:38:39;17.68;68.09
73780;SHT30;62093;37.614;15.072;2022-12-18T16:41:19;17.68;68.15
73780;SHT30;62093;37.614;15.072;2022-12-18T16:43:57;17.69;68.11
73780;SHT30;62093;37.614;15.072;2022-12-18T16:46:23;17.71;68.18
73780;SHT30;62093;37.614;15.072;2022-12-18T16:48:49;17.72;68.08
73780;SHT30;62093;37.614;15.072;2022-12-18T16:51:15;17.66;68.18
73780;SHT30;62093;37.614;15.072;2022-12-18T16:53:41;17.66;68.11
73780;SHT30;62093;37.614;15.072;2022-12-18T16:56:07;17.71;68.08
73780;SHT30;62093;37.614;15.072;2022-12-18T16:58:33;17.68;68.21
73780;SHT30;62093;37.614;15.072;2022-12-18T17:00:59;17.66;68.20
73780;SHT30;62093;37.614;15.072;2022-12-18T17:03:25;17.68;68.19
73780;SHT30;62093;37.614;15.072;2022-12-18T17:05:52;17.66;68.01
73780;SHT30;62093;37.614;15.072;2022-12-18T17:08:18;17.71;68.27
73780;SHT30;62093;37.614;15.072;2022-12-18T17:10:44;17.61;68.25
73780;SHT30;62093;37.614;15.072;2022-12-18T17:13:10;17.62;68.20
73780;SHT30;62093;37.614;15.072;2022-12-18T17:15:36;17.61;68.35
73780;SHT30;62093;37.614;15.072;2022-12-18T17:18:02;17.65;68.31
73780;SHT30;62093;37.614;15.072;2022-12-18T17:20:31;17.63;68.48
73780;SHT30;62093;37.614;15.072;2022-12-18T17:22:58;17.62;68.41
73780;SHT30;62093;37.614;15.072;2022-12-18T17:25:24;17.61;68.42
73780;SHT30;62093;37.614;15.072;2022-12-18T17:27:50;17.62;68.44
73780;SHT30;62093;37.614;15.072;2022-12-18T17:30:16;17.59;68.30
73780;SHT30;62093;37.614;15.072;2022-12-18T17:32:42;17.62;68.37